Dades meteomassalio
Diari Summary for Diciembre 8, 2017 Units:  Metric    English   Both
« Previous Day
Next Day »
Diari Semanal Mensual Anual Personalitzat
  Maxima: Minima: Mijana:
Temperatura: -17.8 °C -20.9 °C -15.1 °C
Rosada: -17.8 °C -21.9 °C -17.6 °C
Humitat: Humidity % 58 % 74 %
Velocitat del vent: 0 km/h 0 km/h 22.2 km/h
Racha vent: 0 km/h - -
Vent:- - NW
Pressio: 0 hPa 34760.7 hPa -
Pluja: 0 mm    
Historical Graphs
 
 
Tabular Data for Diciembre 8, 2017
Time Temperature Dew Point Pressure Wind Wind Speed Wind Gust Humidity Rainfall Rate (Hourly) solar Conditions
-17.8 °C -17.8 °C 0 hPa Calm     Humidity % 0 mm SolarRadiationWatts/m^2 W/m2 Conditions
00:06 -20.2 °C -21.3 °C 34967.2 hPa Calm     86 % 0 mm 0.0 W/m2 CLR
00:11 -20.2 °C -21.3 °C 34967.2 hPa Calm     86 % 0 mm 0.0 W/m2 CLR
00:16 -20.2 °C -21.3 °C 34967.2 hPa Calm     86 % 0 mm 0.0 W/m2 CLR
00:21 -20.2 °C -21.3 °C 34957.1 hPa Calm     86 % 0 mm 0.0 W/m2 CLR
00:26 -20.6 °C -21.7 °C 34957.1 hPa Calm     86 % 0 mm 0.0 W/m2 CLR
00:31 -20.6 °C -21.7 °C 34957.1 hPa Calm     86 % 0 mm 0.0 W/m2 CLR
00:36 -20.6 °C -21.7 °C 34957.1 hPa Calm     86 % 0 mm 0.0 W/m2 CLR
00:51 -20.6 °C -21.7 °C 34946.9 hPa Calm     86 % 0 mm 0.0 W/m2 CLR
01:01 -20.9 °C -21.9 °C 34946.9 hPa Calm     87 % 0 mm 0.0 W/m2 CLR
01:06 -20.9 °C -21.9 °C 34946.9 hPa WSW 7.7 km/h 7.7 km/h 87 % 0 mm 0.0 W/m2 CLR
01:11 -20.9 °C -21.9 °C 34946.9 hPa WSW 3.1 km/h   87 % 0 mm 0.0 W/m2 CLR
01:16 -20.6 °C -21.6 °C 34946.9 hPa Calm     87 % 0 mm 0.0 W/m2 CLR
01:26 -20.6 °C -21.6 °C 34946.9 hPa Calm     87 % 0 mm 0.0 W/m2 CLR
01:31 -20.6 °C -21.6 °C 34946.9 hPa Calm     87 % 0 mm 0.0 W/m2 CLR
01:36 -20.6 °C -21.6 °C 34946.9 hPa WSW 2.6 km/h 2.6 km/h 87 % 0 mm 0.0 W/m2 CLR
01:41 -20.9 °C -21.9 °C 34933.4 hPa Calm     87 % 0 mm 0.0 W/m2 CLR
01:51 -20.9 °C -21.9 °C 34933.4 hPa Calm     87 % 0 mm 0.0 W/m2 CLR
01:56 -20.9 °C -21.8 °C 34933.4 hPa Calm     88 % 0 mm 0.0 W/m2 CLR
02:06 -20.9 °C -21.9 °C 34933.4 hPa Calm     87 % 0 mm 0.0 W/m2 CLR
02:11 -20.9 °C -21.9 °C 34933.4 hPa Calm     87 % 0 mm 0.0 W/m2 CLR
02:16 -20.9 °C -21.9 °C 34933.4 hPa Calm     87 % 0 mm 0.0 W/m2 CLR
02:26 -20.9 °C -21.9 °C 34933.4 hPa Calm     87 % 0 mm 0.0 W/m2 CLR
02:31 -20.9 °C -21.9 °C 34933.4 hPa Calm     86 % 0 mm 0.0 W/m2 CLR
02:36 -20.6 °C -21.7 °C 34933.4 hPa Calm     86 % 0 mm 0.0 W/m2 CLR
02:41 -20.6 °C -21.7 °C 34933.4 hPa Calm     86 % 0 mm 0.0 W/m2 CLR
02:46 -20.6 °C -21.7 °C 34933.4 hPa Calm     86 % 0 mm 0.0 W/m2 CLR
02:51 -20.6 °C -21.7 °C 34923.2 hPa Calm     86 % 0 mm 0.0 W/m2 CLR
03:01 -20.6 °C -21.6 °C 34923.2 hPa Calm     87 % 0 mm 0.0 W/m2 CLR
03:11 -20.2 °C -21.3 °C 34933.4 hPa Calm     87 % 0 mm 0.0 W/m2 CLR
03:16 -20.2 °C -21.3 °C 34923.2 hPa Calm     87 % 0 mm 0.0 W/m2 CLR
03:21 -20.6 °C -21.6 °C 34933.4 hPa Calm     87 % 0 mm 0.0 W/m2 CLR
03:26 -20.6 °C -21.6 °C 34923.2 hPa Calm     87 % 0 mm 0.0 W/m2 CLR
03:31 -20.6 °C -21.5 °C 34923.2 hPa Calm     88 % 0 mm 0.0 W/m2 CLR
03:41 -20.2 °C -21.3 °C 34923.2 hPa Calm     87 % 0 mm 0.0 W/m2 CLR
03:46 -20.2 °C -21.3 °C 34923.2 hPa Calm     87 % 0 mm 0.0 W/m2 CLR
03:51 -19.9 °C -20.9 °C 34923.2 hPa Calm     87 % 0 mm 0.0 W/m2 CLR
04:01 -19.9 °C -20.9 °C 34909.7 hPa Calm     87 % 0 mm 0.0 W/m2 CLR
04:06 -19.6 °C -20.7 °C 34909.7 hPa Calm     87 % 0 mm 0.0 W/m2 CLR
04:19 -19.6 °C -20.7 °C 34909.7 hPa Calm     87 % 0 mm 0.0 W/m2 CLR
04:21 -19.6 °C -20.7 °C 34909.7 hPa Calm     87 % 0 mm 0.0 W/m2 CLR
04:22 -19.6 °C -20.7 °C 34909.7 hPa Calm     87 % 0 mm 0.0 W/m2 CLR
04:26 -19.3 °C -20.4 °C 34899.5 hPa Calm     86 % 0 mm 0.0 W/m2 CLR
04:31 -19.3 °C -20.4 °C 34899.5 hPa Calm     86 % 0 mm 0.0 W/m2 CLR
04:37 -19.3 °C -20.4 °C 34899.5 hPa Calm     86 % 0 mm 0.0 W/m2 CLR
04:47 -19.3 °C -20.4 °C 34899.5 hPa Calm     86 % 0 mm 0.0 W/m2 CLR
04:52 -19.3 °C -20.5 °C 34899.5 hPa Calm     85 % 0 mm 0.0 W/m2 CLR
04:57 -19.3 °C -20.5 °C 34889.3 hPa Calm     85 % 0 mm 0.0 W/m2 CLR
05:02 -19.6 °C -20.8 °C 34889.3 hPa Calm     85 % 0 mm 0.0 W/m2 CLR
05:12 -19.6 °C -20.8 °C 34889.3 hPa Calm     85 % 0 mm 0.0 W/m2 CLR
05:22 -19.6 °C -20.8 °C 34875.8 hPa Calm     85 % 0 mm 0.0 W/m2 CLR
05:27 -19.6 °C -20.8 °C 34875.8 hPa Calm     85 % 0 mm 0.0 W/m2 CLR
05:32 -19.6 °C -20.7 °C 34875.8 hPa Calm   1.3 km/h 86 % 0 mm 0.0 W/m2 CLR
05:37 -19.3 °C -20.4 °C 34875.8 hPa West 6 km/h 6 km/h 87 % 0 mm 0.0 W/m2 CLR
05:42 -19.3 °C -20.4 °C 34875.8 hPa Calm     86 % 0 mm 0.0 W/m2 CLR
05:47 -19.3 °C -20.4 °C 34875.8 hPa Calm     86 % 0 mm 0.0 W/m2 CLR
05:52 -19.3 °C -20.4 °C 34875.8 hPa Calm     86 % 0 mm 0.0 W/m2 CLR
05:57 -19.3 °C -20.4 °C 34875.8 hPa Calm     86 % 0 mm 0.0 W/m2 CLR
06:02 -19.3 °C -20.4 °C 34865.6 hPa Calm     86 % 0 mm 0.0 W/m2 CLR
06:07 -19.3 °C -20.4 °C 34875.8 hPa Calm     86 % 0 mm 0.0 W/m2 CLR
06:12 -19.3 °C -20.4 °C 34875.8 hPa Calm     87 % 0 mm 0.0 W/m2 CLR
06:17 -19.3 °C -20.4 °C 34865.6 hPa Calm     87 % 0 mm 0.0 W/m2 CLR
06:27 -19 °C -20.2 °C 34865.6 hPa Calm     85 % 0 mm 0.0 W/m2 CLR
06:39 -19 °C -20.4 °C 34865.6 hPa Calm     83 % 0 mm 0.0 W/m2 CLR
06:49 -19 °C -20.4 °C 34865.6 hPa Calm     83 % 0 mm 0.0 W/m2 CLR
06:54 -19 °C -20.5 °C 34865.6 hPa East 6 km/h 6 km/h 82 % 0 mm 0.0 W/m2 CLR
07:04 -18.7 °C -20.3 °C 34865.6 hPa Calm     81 % 0 mm 0.0 W/m2 CLR
07:09 -18.7 °C -20.4 °C 34865.6 hPa Calm     80 % 0 mm 0.0 W/m2 CLR
07:14 -18.7 °C -20.4 °C 34865.6 hPa Calm     79 % 0 mm 0.0 W/m2 CLR
07:19 -18.7 °C -20.6 °C 34865.6 hPa Calm     78 % 0 mm 0.0 W/m2 CLR
07:29 -18.7 °C -20.6 °C 34865.6 hPa Calm     78 % 0 mm 0.0 W/m2 CLR
07:39 -18.7 °C -20.6 °C 34865.6 hPa Calm     78 % 0 mm 0.0 W/m2 CLR
07:44 -18.4 °C -20.2 °C 34865.6 hPa Calm     79 % 0 mm 0.0 W/m2 CLR
07:49 -18.4 °C -20.2 °C 34865.6 hPa Calm     79 % 0 mm 0.0 W/m2 CLR
08:14 -18.7 °C -20.4 °C 34865.6 hPa Calm     79 % 0 mm 0.0 W/m2 OVC
08:19 -18.7 °C -20.4 °C 34865.6 hPa Calm     79 % 0 mm 5.0 W/m2 OVC
08:29 -18.7 °C -20.4 °C 34865.6 hPa Calm     80 % 0 mm 14.0 W/m2 BKN
08:34 -18.7 °C -20.4 °C 34865.6 hPa Calm     79 % 0 mm 18.0 W/m2 BKN
08:39 -18.7 °C -20.4 °C 34865.6 hPa Calm     79 % 0 mm 23.0 W/m2 BKN
08:49 -18.7 °C -20.6 °C 34865.6 hPa Calm     78 % 0 mm 18.0 W/m2 BKN
08:54 -18.7 °C -20.6 °C 34865.6 hPa Calm     78 % 0 mm 19.0 W/m2 BKN
08:59 -18.4 °C -20.2 °C 34865.6 hPa Calm     78 % 0 mm 14.0 W/m2 BKN
09:04 -18.4 °C -20.2 °C 34865.6 hPa Calm     79 % 0 mm 16.0 W/m2 BKN
09:09 -18.4 °C -20.2 °C 34865.6 hPa Calm     79 % 0 mm 21.0 W/m2 BKN
09:14 -18.4 °C -20.1 °C 34865.6 hPa Calm     80 % 0 mm 18.0 W/m2 BKN
09:19 -18.4 °C -20.1 °C 34865.6 hPa Calm     80 % 0 mm 19.0 W/m2 BKN
09:24 -18.7 °C -20.3 °C 34865.6 hPa Calm     81 % 0 mm 23.0 W/m2 BKN
09:29 -18.7 °C -20.3 °C 34865.6 hPa Calm     81 % 0 mm 26.0 W/m2 BKN
09:34 -18.7 °C -20.2 °C 34865.6 hPa Calm     82 % 0 mm 132.0 W/m2 SCT
09:39 -18.4 °C -19.9 °C 34865.6 hPa Calm     82 % 0 mm 130.0 W/m2 CLR
09:49 -18.4 °C -20.2 °C 34875.8 hPa Calm     79 % 0 mm 181.0 W/m2 CLR
09:54 -18.1 °C -20.1 °C 34875.8 hPa Calm     77 % 0 mm 181.0 W/m2 CLR
10:04 -17.4 °C -19.7 °C 34875.8 hPa Calm     75 % 0 mm 237.0 W/m2 CLR
10:09 -17.2 °C -19.6 °C 34875.8 hPa Calm     73 % 0 mm 258.0 W/m2 CLR
10:14 -16.6 °C -19.2 °C 34875.8 hPa Calm     71 % 0 mm 151.0 W/m2 CLR
10:19 -16.2 °C -19 °C 34875.8 hPa WNW 9 km/h 9 km/h 70 % 0 mm 176.0 W/m2 CLR
10:24 -15.9 °C -18.8 °C 34865.6 hPa NW 17.9 km/h 17.9 km/h 69 % 0 mm 192.0 W/m2 CLR
10:34 -14.7 °C -18.2 °C 34865.6 hPa NW 9 km/h 9 km/h 64 % 0 mm 301.0 W/m2 CLR
10:49 -13.4 °C -17.3 °C 34865.6 hPa NW 23.8 km/h 23.8 km/h 62 % 0 mm 213.0 W/m2 CLR
10:54 -12.6 °C -16.4 °C 34865.6 hPa NW 20.9 km/h 20.9 km/h 62 % 0 mm 264.0 W/m2 CLR
10:59 -12.2 °C -16.1 °C 34865.6 hPa NW 32.8 km/h 32.8 km/h 62 % 0 mm 171.0 W/m2 CLR
11:19 -11.9 °C -15.7 °C 34865.6 hPa NNW 29.8 km/h 29.8 km/h 63 % 0 mm 151.0 W/m2 CLR
11:24 -11.9 °C -15.7 °C 34865.6 hPa North 26.9 km/h 26.9 km/h 63 % 0 mm 178.0 W/m2 CLR
11:34 -11.6 °C -15.4 °C 34865.6 hPa North 29.8 km/h 29.8 km/h 63 % 0 mm 248.0 W/m2 CLR
11:39 -11.6 °C -15.4 °C 34865.6 hPa North 31.1 km/h 31.1 km/h 63 % 0 mm 190.0 W/m2 CLR
11:44 -11.6 °C -15.4 °C 34852.1 hPa NNW 38.8 km/h 38.8 km/h 63 % 0 mm 178.0 W/m2 CLR
11:49 -11.6 °C -15.4 °C 34852.1 hPa North 29.8 km/h 29.8 km/h 63 % 0 mm 176.0 W/m2 CLR
11:59 -11.6 °C -15.4 °C 34852.1 hPa NNW 31.1 km/h 31.1 km/h 63 % 0 mm 204.0 W/m2 CLR
12:04 -11.6 °C -15.4 °C 34852.1 hPa NNW 26.9 km/h 26.9 km/h 63 % 0 mm 197.0 W/m2 CLR
12:14 -11.3 °C -15.1 °C 34841.9 hPa North 20.9 km/h 20.9 km/h 63 % 0 mm 223.0 W/m2 CLR
12:19 -11.3 °C -15.2 °C 34841.9 hPa North 41.4 km/h 41.4 km/h 62 % 0 mm 308.0 W/m2 CLR
12:24 -11.3 °C -15.2 °C 34841.9 hPa NNW 44.1 km/h 44.1 km/h 62 % 0 mm 339.0 W/m2 CLR
12:29 -11 °C -14.9 °C 34831.8 hPa NNW 47.6 km/h 47.6 km/h 62 % 0 mm 302.0 W/m2 CLR
12:34 -11 °C -14.9 °C 34831.8 hPa North 38.8 km/h 38.8 km/h 62 % 0 mm 329.0 W/m2 CLR
12:39 -11 °C -15.1 °C 34831.8 hPa NNE 31.1 km/h 31.1 km/h 61 % 0 mm 318.0 W/m2 CLR
12:44 -11 °C -15.1 °C 34818.2 hPa North 26.9 km/h 26.9 km/h 61 % 0 mm 239.0 W/m2 CLR
12:49 -11.3 °C -15.4 °C 34818.2 hPa NNW 23.8 km/h 23.8 km/h 60 % 0 mm 220.0 W/m2 CLR
12:54 -11.3 °C -15.4 °C 34818.2 hPa NNW 29.8 km/h 29.8 km/h 60 % 0 mm 234.0 W/m2 CLR
13:05 -11.3 °C -15.3 °C 34818.2 hPa NNW 38.8 km/h 38.8 km/h 61 % 0 mm 209.0 W/m2 CLR
13:10 -11.3 °C -15.3 °C 34818.2 hPa NW 29.8 km/h 29.8 km/h 61 % 0 mm 195.0 W/m2 CLR
13:15 -11 °C -14.9 °C 34808.1 hPa NW 33.6 km/h 33.6 km/h 62 % 0 mm 167.0 W/m2 CLR
13:20 -11 °C -14.9 °C 34808.1 hPa NNW 41.7 km/h 41.7 km/h 62 % 0 mm 158.0 W/m2 CLR
13:25 -11 °C -15.1 °C 34808.1 hPa North 35.7 km/h 35.7 km/h 61 % 0 mm 279.0 W/m2 CLR
13:30 -10.7 °C -14.8 °C 34808.1 hPa NNW 36.2 km/h 36.2 km/h 61 % 0 mm 320.0 W/m2 CLR
13:40 -10.4 °C -14.7 °C 34797.9 hPa NNW 36.2 km/h 36.2 km/h 59 % 0 mm 378.0 W/m2 CLR
13:45 -10.1 °C -14.4 °C 34797.9 hPa NNW 41.4 km/h 41.4 km/h 59 % 0 mm 461.0 W/m2 CLR
13:50 -10.1 °C -14.4 °C 34797.9 hPa NNW 41.4 km/h 41.4 km/h 59 % 0 mm 466.0 W/m2 CLR
13:55 -10.1 °C -14.6 °C 34784.4 hPa NNW 44.7 km/h 44.7 km/h 58 % 0 mm 436.0 W/m2 CLR
14:00 -9.8 °C -14.3 °C 34784.4 hPa NNW 38.8 km/h 38.8 km/h 58 % 0 mm 338.0 W/m2 CLR
14:05 -10.1 °C -14.4 °C 34797.9 hPa NNW 47.6 km/h 47.6 km/h 59 % 0 mm 272.0 W/m2 CLR
14:15 -10.1 °C -14.4 °C 34784.4 hPa North 31.1 km/h 31.1 km/h 59 % 0 mm 176.0 W/m2 CLR
14:25 -10.4 °C -14.6 °C 34797.9 hPa NNW 56.6 km/h 56.6 km/h 60 % 0 mm 183.0 W/m2 CLR
14:30 -10.4 °C -14.7 °C 34784.4 hPa NW 44.7 km/h 44.7 km/h 59 % 0 mm 172.0 W/m2 CLR
14:35 -10.4 °C -14.7 °C 34784.4 hPa North 49.2 km/h 49.2 km/h 59 % 0 mm 127.0 W/m2 CLR
14:40 -10.4 °C -14.6 °C 34784.4 hPa NNW 44.7 km/h 44.7 km/h 60 % 0 mm 127.0 W/m2 CLR
14:50 -10.4 °C -14.5 °C 34784.4 hPa NNW 62.6 km/h 62.6 km/h 61 % 0 mm 130.0 W/m2 CLR
14:55 -10.4 °C -14.5 °C 34784.4 hPa North 59.5 km/h 59.5 km/h 61 % 0 mm 153.0 W/m2 CLR
15:00 -10.4 °C -14.5 °C 34774.2 hPa NNW 53.6 km/h 53.6 km/h 61 % 0 mm 130.0 W/m2 CLR
15:05 -10.4 °C -14.5 °C 34774.2 hPa North 49.2 km/h 49.2 km/h 61 % 0 mm 118.0 W/m2 CLR
15:10 -10.4 °C -14.5 °C 34774.2 hPa North 46.7 km/h 46.7 km/h 61 % 0 mm 113.0 W/m2 CLR
15:15 -10.7 °C -14.6 °C 34774.2 hPa NNW 41.7 km/h 41.7 km/h 62 % 0 mm 105.0 W/m2 CLR
15:30 -10.7 °C -14.6 °C 34774.2 hPa NNW 50.7 km/h 50.7 km/h 62 % 0 mm 113.0 W/m2 CLR
15:35 -10.4 °C -14.3 °C 34760.7 hPa NNW 46.7 km/h 46.7 km/h 62 % 0 mm 306.0 W/m2 CLR
15:40 -10.1 °C -14.2 °C 34760.7 hPa North 53.6 km/h 53.6 km/h 61 % 0 mm 309.0 W/m2 CLR
15:45 -10.1 °C -14.3 °C 34760.7 hPa NNW 56.6 km/h 56.6 km/h 60 % 0 mm 318.0 W/m2 CLR
15:50 -10.1 °C -14.3 °C 34760.7 hPa NNW 57 km/h 57 km/h 60 % 0 mm 304.0 W/m2 CLR
15:55 -10.1 °C -14.3 °C 34760.7 hPa NW 38.8 km/h 38.8 km/h 60 % 0 mm 192.0 W/m2 CLR
16:00 -10.1 °C -14.3 °C 34760.7 hPa North 50.7 km/h 50.7 km/h 60 % 0 mm 153.0 W/m2 CLR
16:05 -10.1 °C -14.3 °C 34760.7 hPa NNW 59.5 km/h 59.5 km/h 60 % 0 mm 125.0 W/m2 CLR
16:10 -10.4 °C -14.6 °C 34760.7 hPa NNW 62.6 km/h 62.6 km/h 60 % 0 mm 90.0 W/m2 CLR
16:15 -10.4 °C -14.5 °C 34760.7 hPa NW 47.6 km/h 47.6 km/h 61 % 0 mm 60.0 W/m2 CLR
16:20 -10.4 °C -14.5 °C 34760.7 hPa NNW 53.6 km/h 53.6 km/h 61 % 0 mm 58.0 W/m2 FEW
16:25 -10.7 °C -14.6 °C 34760.7 hPa North 50.7 km/h 50.7 km/h 62 % 0 mm 86.0 W/m2 SCT
16:30 -10.7 °C -14.6 °C 34760.7 hPa NW 38.8 km/h 38.8 km/h 62 % 0 mm 114.0 W/m2 FEW
16:35 -10.7 °C -14.8 °C 34760.7 hPa NNW 47.6 km/h 47.6 km/h 61 % 0 mm 109.0 W/m2 CLR
16:40 -10.7 °C -14.8 °C 34760.7 hPa NW 35.7 km/h 35.7 km/h 61 % 0 mm 109.0 W/m2 CLR
16:45 -10.7 °C -14.6 °C 34760.7 hPa NNW 47.6 km/h 47.6 km/h 62 % 0 mm 91.0 W/m2 CLR
17:00 -10.7 °C -14.5 °C 34774.2 hPa NW 50.7 km/h 50.7 km/h 63 % 0 mm 39.0 W/m2 SCT
17:10 -10.7 °C -14.4 °C 34774.2 hPa North 50.7 km/h 50.7 km/h 64 % 0 mm 23.0 W/m2 BKN
17:15 -11 °C -14.7 °C 34774.2 hPa NNW 50.7 km/h 50.7 km/h 64 % 0 mm 18.0 W/m2 BKN
17:20 -11 °C -14.7 °C 34774.2 hPa NW 38.8 km/h 38.8 km/h 64 % 0 mm 11.0 W/m2 BKN
17:25 -11 °C -14.7 °C 34774.2 hPa NW 47.6 km/h 47.6 km/h 64 % 0 mm 7.0 W/m2 BKN
17:35 -11 °C -14.6 °C 34774.2 hPa NW 41.4 km/h 41.4 km/h 65 % 0 mm 0.0 W/m2 OVC
17:40 -11 °C -14.6 °C 34774.2 hPa NW 38.8 km/h 38.8 km/h 65 % 0 mm 0.0 W/m2 OVC
17:45 -11.3 °C -14.8 °C 34774.2 hPa NW 35.7 km/h 35.7 km/h 65 % 0 mm 0.0 W/m2 CLR
17:50 -11.3 °C -14.8 °C 34774.2 hPa NW 50.7 km/h 50.7 km/h 65 % 0 mm 0.0 W/m2 CLR
17:55 -11.3 °C -14.8 °C 34784.4 hPa North 41.7 km/h 41.7 km/h 65 % 0 mm 0.0 W/m2 CLR
18:00 -11.3 °C -14.7 °C 34774.2 hPa North 31.1 km/h 31.1 km/h 66 % 0 mm 0.0 W/m2 CLR
18:10 -11.3 °C -14.7 °C 34774.2 hPa NW 32.8 km/h 32.8 km/h 66 % 0 mm 0.0 W/m2 CLR
18:20 -11.6 °C -14.9 °C 34774.2 hPa North 44.7 km/h 44.7 km/h 67 % 0 mm 0.0 W/m2 CLR
18:25 -11.6 °C -14.8 °C 34774.2 hPa North 50.7 km/h 50.7 km/h 68 % 0 mm 0.0 W/m2 CLR
18:30 -11.6 °C -14.7 °C 34774.2 hPa NNW 50.7 km/h 50.7 km/h 69 % 0 mm 0.0 W/m2 CLR
18:40 -11.6 °C -14.7 °C 34774.2 hPa NNW 41.7 km/h 41.7 km/h 69 % 0 mm 0.0 W/m2 CLR
18:45 -11.6 °C -14.6 °C 34774.2 hPa North 47.6 km/h 47.6 km/h 70 % 0 mm 0.0 W/m2 CLR
18:50 -11.6 °C -14.6 °C 34774.2 hPa NNE 31.1 km/h 31.1 km/h 70 % 0 mm 0.0 W/m2 CLR
19:00 -11.6 °C -14.6 °C 34774.2 hPa North 50.7 km/h 50.7 km/h 70 % 0 mm 0.0 W/m2 CLR
19:05 -11.6 °C -14.6 °C 34774.2 hPa NNW 51.8 km/h 51.8 km/h 70 % 0 mm 0.0 W/m2 CLR
19:10 -11.6 °C -14.6 °C 34784.4 hPa NNW 62.1 km/h 62.1 km/h 70 % 0 mm 0.0 W/m2 CLR
19:20 -11.6 °C -14.6 °C 34774.2 hPa NW 29.8 km/h 29.8 km/h 70 % 0 mm 0.0 W/m2 CLR
19:25 -11.9 °C -14.8 °C 34774.2 hPa NNW 44.1 km/h 44.1 km/h 70 % 0 mm 0.0 W/m2 CLR
19:45 -11.9 °C -14.6 °C 34784.4 hPa North 62.6 km/h 62.6 km/h 72 % 0 mm 0.0 W/m2 CLR
19:55 -11.9 °C -14.7 °C 34774.2 hPa North 49.2 km/h 49.2 km/h 71 % 0 mm 0.0 W/m2 CLR
20:00 -11.9 °C -14.6 °C 34784.4 hPa NNW 49.2 km/h 49.2 km/h 72 % 0 mm 0.0 W/m2 CLR
20:05 -11.9 °C -14.6 °C 34784.4 hPa NNW 50.7 km/h 50.7 km/h 72 % 0 mm 0.0 W/m2 CLR
20:10 -12.2 °C -14.9 °C 34784.4 hPa North 33.6 km/h 33.6 km/h 72 % 0 mm 0.0 W/m2 CLR
20:20 -12.2 °C -14.8 °C 34784.4 hPa North 44.1 km/h 44.1 km/h 73 % 0 mm 0.0 W/m2 CLR
20:30 -12.6 °C -14.9 °C 34784.4 hPa NNW 47.6 km/h 47.6 km/h 74 % 0 mm 0.0 W/m2 CLR
20:35 -12.6 °C -14.9 °C 34774.2 hPa NNW 44.7 km/h 44.7 km/h 74 % 0 mm 0.0 W/m2 CLR
20:40 -12.6 °C -14.9 °C 34774.2 hPa NW 31.1 km/h 31.1 km/h 74 % 0 mm 0.0 W/m2 CLR
20:50 -12.6 °C -14.9 °C 34774.2 hPa NW 44.7 km/h 44.7 km/h 75 % 0 mm 0.0 W/m2 CLR
21:00 -12.6 °C -14.8 °C 34774.2 hPa North 36.2 km/h 36.2 km/h 76 % 0 mm 0.0 W/m2 CLR
21:10 -12.6 °C -14.8 °C 34774.2 hPa NNW 32.8 km/h 32.8 km/h 76 % 0 mm 0.0 W/m2 CLR
21:15 -12.6 °C -14.8 °C 34784.4 hPa NW 29.8 km/h 29.8 km/h 76 % 0 mm 0.0 W/m2 CLR
21:20 -12.6 °C -14.7 °C 34774.2 hPa NW 44.7 km/h 44.7 km/h 77 % 0 mm 0.0 W/m2 CLR
21:25 -12.6 °C -14.7 °C 34774.2 hPa NNW 41.4 km/h 41.4 km/h 77 % 0 mm 0.0 W/m2 CLR
21:35 -12.8 °C -14.9 °C 34774.2 hPa North 38.8 km/h 38.8 km/h 77 % 0 mm 0.0 W/m2 CLR
21:45 -12.8 °C -14.9 °C 34774.2 hPa NNW 29.8 km/h 29.8 km/h 77 % 0 mm 0.0 W/m2 CLR
21:50 -12.8 °C -14.8 °C 34774.2 hPa NW 29.8 km/h 29.8 km/h 78 % 0 mm 0.0 W/m2 CLR
21:55 -12.8 °C -14.8 °C 34784.4 hPa NNW 35.7 km/h 35.7 km/h 78 % 0 mm 0.0 W/m2 CLR
22:05 -12.8 °C -14.8 °C 34784.4 hPa North 32.8 km/h 32.8 km/h 78 % 0 mm 0.0 W/m2 CLR
22:10 -12.8 °C -14.8 °C 34784.4 hPa North 41.7 km/h 41.7 km/h 78 % 0 mm 0.0 W/m2 CLR
22:15 -12.8 °C -14.9 °C 34784.4 hPa NNW 38.8 km/h 38.8 km/h 77 % 0 mm 0.0 W/m2 CLR
22:20 -13.2 °C -15.2 °C 34784.4 hPa North 47.6 km/h 47.6 km/h 78 % 0 mm 0.0 W/m2 CLR
22:25 -13.2 °C -15.2 °C 34784.4 hPa WNW 26.9 km/h 26.9 km/h 77 % 0 mm 0.0 W/m2 CLR
22:30 -13.2 °C -15.2 °C 34784.4 hPa NNW 29.8 km/h 29.8 km/h 77 % 0 mm 0.0 W/m2 CLR
22:35 -13.2 °C -15.2 °C 34784.4 hPa NW 29.8 km/h 29.8 km/h 78 % 0 mm 0.0 W/m2 CLR
22:40 -13.2 °C -15.2 °C 34784.4 hPa North 20.9 km/h 20.9 km/h 77 % 0 mm 0.0 W/m2 CLR
22:56 -13.2 °C -15.2 °C 34784.4 hPa WNW 17.9 km/h 17.9 km/h 78 % 0 mm 0.0 W/m2 CLR
22:57 -13.4 °C -15.4 °C 34784.4 hPa NW 9 km/h   78 % 0 mm 0.0 W/m2 CLR
23:02 -13.4 °C -15.4 °C 34784.4 hPa WNW 20.9 km/h 20.9 km/h 78 % 0 mm 0.0 W/m2 CLR
23:07 -13.4 °C -15.4 °C 34774.2 hPa NNW 23.3 km/h 23.3 km/h 78 % 0 mm 0.0 W/m2 CLR
23:12 -13.4 °C -15.6 °C 34774.2 hPa NW 20.8 km/h 20.8 km/h 77 % 0 mm 0.0 W/m2 CLR
23:22 -13.4 °C -15.7 °C 34774.2 hPa NNW 46.7 km/h 46.7 km/h 76 % 0 mm 0.0 W/m2 CLR
23:32 -13.4 °C -15.8 °C 34774.2 hPa NW 35.7 km/h 35.7 km/h 75 % 0 mm 0.0 W/m2 CLR
23:42 -13.4 °C -15.8 °C 34784.4 hPa NW 38.8 km/h 38.8 km/h 75 % 0 mm 0.0 W/m2 CLR
23:47 -13.4 °C -15.9 °C 34784.4 hPa West 28.5 km/h 28.5 km/h 74 % 0 mm 0.0 W/m2 CLR
23:52 -13.4 °C -15.8 °C 34784.4 hPa NW 26.9 km/h 26.9 km/h 75 % 0 mm 0.0 W/m2 CLR
23:57 -13.4 °C -15.8 °C 34784.4 hPa North 35.7 km/h 35.7 km/h 75 % 0 mm 0.0 W/m2 CLR
Lo Temps de Massalio
Compliments of Weather Underground - 1 mb